Time,TemperatureF,DewpointF,PressureIn,WindDirection,WindDirectionDegrees,WindSpeedMPH,WindSpeedGustMPH,Humidity,HourlyPrecipIn,Conditions,Clouds,dailyrainin,SoftwareType,DateUTC
2013-01-07 00:03:00,41.0,29.0,30.21,NW,311,2.0,5.0,63,0.00,,,0.00,,2013-01-07 05:03:00,
2013-01-07 00:12:00,41.0,29.0,30.21,NW,311,2.0,5.0,63,0.00,,,0.00,,2013-01-07 05:12:00,
2013-01-07 00:22:00,40.0,29.0,30.22,NNW,336,2.0,5.0,65,0.00,,,0.00,,2013-01-07 05:22:00,
2013-01-07 00:33:00,40.0,30.0,30.22,NNW,331,2.0,5.0,66,0.00,,,0.00,,2013-01-07 05:33:00,
2013-01-07 00:42:00,40.0,30.0,30.22,NNW,331,2.0,5.0,66,0.00,,,0.00,,2013-01-07 05:42:00,
2013-01-07 00:53:00,40.0,30.0,30.22,NNW,331,2.0,5.0,66,0.00,,,0.00,,2013-01-07 05:53:00,
2013-01-07 01:02:00,41.0,30.0,30.22,NW,319,1.0,4.0,65,0.00,,,0.00,,2013-01-07 06:02:00,
2013-01-07 01:12:00,41.0,30.0,30.22,NW,319,1.0,4.0,65,0.00,,,0.00,,2013-01-07 06:12:00,
2013-01-07 01:22:00,40.0,29.0,30.21,NW,313,2.0,6.0,65,0.00,,,0.00,,2013-01-07 06:22:00,
2013-01-07 01:32:00,40.0,29.0,30.21,NW,322,2.0,5.0,65,0.00,,,0.00,,2013-01-07 06:32:00,
2013-01-07 01:42:00,40.0,29.0,30.21,NW,322,2.0,5.0,65,0.00,,,0.00,,2013-01-07 06:42:00,
2013-01-07 01:52:00,41.0,29.0,30.22,North,5,4.0,10.0,61,0.00,,,0.00,,2013-01-07 06:52:00,
2013-01-07 02:02:00,41.0,29.0,30.22,NW,324,3.0,8.0,62,0.00,,,0.00,,2013-01-07 07:02:00,
2013-01-07 02:12:00,41.0,29.0,30.22,NW,324,3.0,8.0,62,0.00,,,0.00,,2013-01-07 07:12:00,
2013-01-07 02:22:00,40.0,28.0,30.23,NW,306,4.0,9.0,61,0.00,,,0.00,,2013-01-07 07:22:00,
2013-01-07 02:33:00,40.0,28.0,30.22,ENE,64,4.0,10.0,61,0.00,,,0.00,,2013-01-07 07:33:00,
2013-01-07 02:42:00,40.0,28.0,30.22,ENE,64,4.0,10.0,61,0.00,,,0.00,,2013-01-07 07:42:00,
2013-01-07 02:53:00,40.0,27.0,30.22,NNW,338,2.0,11.0,60,0.00,,,0.00,,2013-01-07 07:53:00,
2013-01-07 03:03:00,39.0,27.0,30.23,NW,315,3.0,8.0,63,0.00,,,0.00,,2013-01-07 08:03:00,
2013-01-07 03:12:00,39.0,27.0,30.23,NW,315,3.0,8.0,63,0.00,,,0.00,,2013-01-07 08:12:00,
2013-01-07 03:22:00,39.0,27.0,30.25,WNW,292,2.0,5.0,62,0.00,,,0.00,,2013-01-07 08:22:00,
2013-01-07 03:33:00,38.0,27.0,30.25,WNW,303,1.0,4.0,63,0.00,,,0.00,,2013-01-07 08:33:00,
2013-01-07 03:42:00,38.0,27.0,30.25,WNW,303,1.0,4.0,63,0.00,,,0.00,,2013-01-07 08:42:00,
2013-01-07 03:53:00,38.0,27.0,30.26,WNW,297,0.0,2.0,64,0.00,,,0.00,,2013-01-07 08:53:00,
2013-01-07 04:02:00,38.0,27.0,30.27,NW,311,2.0,5.0,64,0.00,,,0.00,,2013-01-07 09:02:00,
2013-01-07 04:12:00,38.0,27.0,30.27,NW,311,2.0,5.0,64,0.00,,,0.00,,2013-01-07 09:12:00,
2013-01-07 04:22:00,38.0,27.0,30.27,NW,323,1.0,5.0,63,0.00,,,0.00,,2013-01-07 09:22:00,
2013-01-07 04:32:00,37.0,26.0,30.27,NW,305,3.0,7.0,64,0.00,,,0.00,,2013-01-07 09:32:00,
2013-01-07 04:42:00,37.0,26.0,30.27,NW,305,3.0,7.0,64,0.00,,,0.00,,2013-01-07 09:42:00,
2013-01-07 04:53:00,38.0,27.0,30.28,West,271,1.0,5.0,63,0.00,,,0.00,,2013-01-07 09:53:00,
2013-01-07 05:02:00,38.0,27.0,30.28,West,271,1.0,5.0,63,0.00,,,0.00,,2013-01-07 10:02:00,
2013-01-07 05:12:00,36.0,26.0,30.28,NW,311,2.0,4.0,68,0.00,,,0.00,,2013-01-07 10:12:00,
2013-01-07 05:22:00,36.0,26.0,30.28,NW,311,2.0,4.0,68,0.00,,,0.00,,2013-01-07 10:22:00,
2013-01-07 05:32:00,36.0,26.0,30.29,NE,48,1.0,4.0,67,0.00,,,0.00,,2013-01-07 10:32:00,
2013-01-07 05:43:00,36.0,26.0,30.29,NE,48,1.0,4.0,67,0.00,,,0.00,,2013-01-07 10:43:00,
2013-01-07 05:52:00,36.0,26.0,30.29,NE,48,1.0,4.0,67,0.00,,,0.00,,2013-01-07 10:52:00,
2013-01-07 06:02:00,36.0,26.0,30.29,NE,54,4.0,8.0,66,0.00,,,0.00,,2013-01-07 11:02:00,
2013-01-07 06:12:00,36.0,26.0,30.29,NE,54,4.0,8.0,66,0.00,,,0.00,,2013-01-07 11:12:00,
2013-01-07 06:23:00,36.0,26.0,30.29,NNW,328,2.0,3.0,66,0.00,,,0.00,,2013-01-07 11:23:00,
2013-01-07 06:33:00,35.0,25.0,30.30,East,97,1.0,3.0,67,0.00,,,0.00,,2013-01-07 11:33:00,
2013-01-07 06:43:00,35.0,25.0,30.30,East,97,1.0,3.0,67,0.00,,,0.00,,2013-01-07 11:43:00,
2013-01-07 06:53:00,35.0,26.0,30.31,ENE,69,1.0,2.0,68,0.00,,,0.00,,2013-01-07 11:53:00,
2013-01-07 07:03:00,33.0,25.0,30.32,NE,34,1.0,2.0,71,0.00,,,0.00,,2013-01-07 12:03:00,
2013-01-07 07:12:00,33.0,25.0,30.34,SSE,161,1.0,3.0,72,0.00,,,0.00,,2013-01-07 12:12:00,
2013-01-07 07:22:00,33.0,25.0,30.34,SSE,161,1.0,3.0,72,0.00,,,0.00,,2013-01-07 12:22:00,
2013-01-07 07:33:00,32.0,24.0,30.35,SE,144,1.0,2.0,73,0.00,,,0.00,,2013-01-07 12:33:00,
2013-01-07 07:43:00,32.0,24.0,30.35,SE,144,1.0,2.0,73,0.00,,,0.00,,2013-01-07 12:43:00,
2013-01-07 07:53:00,31.0,24.0,30.35,NE,40,2.0,3.0,75,0.00,,,0.00,,2013-01-07 12:53:00,
2013-01-07 08:03:00,30.0,24.0,30.36,SE,132,1.0,2.0,78,0.00,,,0.00,,2013-01-07 13:03:00,
2013-01-07 08:12:00,30.0,24.0,30.36,SE,132,1.0,2.0,78,0.00,,,0.00,,2013-01-07 13:12:00,
2013-01-07 08:23:00,29.0,24.0,30.38,NNE,29,1.0,2.0,80,0.00,,,0.00,,2013-01-07 13:23:00,
2013-01-07 08:33:00,29.0,24.0,30.38,NNE,29,1.0,2.0,80,0.00,,,0.00,,2013-01-07 13:33:00,
2013-01-07 08:42:00,29.0,24.0,30.38,NNE,29,1.0,2.0,80,0.00,,,0.00,,2013-01-07 13:42:00,
2013-01-07 08:53:00,32.0,25.0,30.40,NNW,339,1.0,5.0,76,0.00,,,0.00,,2013-01-07 13:53:00,
2013-01-07 09:03:00,34.0,27.0,30.40,WNW,288,1.0,2.0,75,0.00,,,0.00,,2013-01-07 14:03:00,
2013-01-07 09:13:00,34.0,27.0,30.40,WNW,288,1.0,2.0,75,0.00,,,0.00,,2013-01-07 14:13:00,
2013-01-07 09:23:00,36.0,26.0,30.42,North,360,1.0,3.0,68,0.00,,,0.00,,2013-01-07 14:23:00,
2013-01-07 09:33:00,37.0,26.0,30.42,ENE,61,5.0,10.0,63,0.00,,,0.00,,2013-01-07 14:33:00,
2013-01-07 09:43:00,37.0,26.0,30.42,ENE,61,5.0,10.0,63,0.00,,,0.00,,2013-01-07 14:43:00,
2013-01-07 09:53:00,37.0,26.0,30.42,ESE,106,3.0,7.0,63,0.00,,,0.00,,2013-01-07 14:53:00,
2013-01-07 10:03:00,38.0,26.0,30.44,ENE,69,4.0,7.0,61,0.00,,,0.00,,2013-01-07 15:03:00,
2013-01-07 10:12:00,38.0,26.0,30.44,ENE,69,4.0,7.0,61,0.00,,,0.00,,2013-01-07 15:12:00,
2013-01-07 10:22:00,39.0,26.0,30.44,ENE,71,5.0,10.0,59,0.00,,,0.00,,2013-01-07 15:22:00,
2013-01-07 10:33:00,39.0,26.0,30.44,WNW,294,2.0,5.0,59,0.00,,,0.00,,2013-01-07 15:33:00,
2013-01-07 10:43:00,39.0,26.0,30.44,WNW,294,2.0,5.0,59,0.00,,,0.00,,2013-01-07 15:43:00,
2013-01-07 10:53:00,40.0,26.0,30.44,West,276,1.0,4.0,57,0.00,,,0.00,,2013-01-07 15:53:00,
2013-01-07 11:03:00,40.0,26.0,30.44,NNE,19,2.0,8.0,56,0.00,,,0.00,,2013-01-07 16:03:00,
2013-01-07 11:12:00,40.0,26.0,30.44,NNE,19,2.0,8.0,56,0.00,,,0.00,,2013-01-07 16:12:00,
2013-01-07 11:22:00,41.0,27.0,30.44,WNW,288,2.0,8.0,56,0.00,,,0.00,,2013-01-07 16:22:00,
2013-01-07 11:33:00,41.0,27.0,30.44,WNW,288,2.0,8.0,56,0.00,,,0.00,,2013-01-07 16:33:00,
2013-01-07 11:43:00,41.0,27.0,30.44,WNW,288,2.0,8.0,56,0.00,,,0.00,,2013-01-07 16:43:00,
2013-01-07 12:23:00,43.0,28.0,30.41,ESE,116,1.0,6.0,54,0.00,,,0.00,,2013-01-07 17:23:00,
2013-01-07 12:33:00,43.0,27.0,30.41,East,82,4.0,6.0,52,0.00,,,0.00,,2013-01-07 17:33:00,
2013-01-07 12:43:00,43.0,27.0,30.41,East,82,4.0,6.0,52,0.00,,,0.00,,2013-01-07 17:43:00,
2013-01-07 12:53:00,44.0,27.0,30.40,SE,134,2.0,4.0,51,0.00,,,0.00,,2013-01-07 17:53:00,
2013-01-07 13:03:00,44.0,27.0,30.40,SE,134,2.0,4.0,51,0.00,,,0.00,,2013-01-07 18:03:00,
2013-01-07 13:12:00,44.0,27.0,30.40,SE,134,2.0,4.0,51,0.00,,,0.00,,2013-01-07 18:12:00,
2013-01-07 13:23:00,45.0,27.0,30.39,East,97,2.0,5.0,49,0.00,,,0.00,,2013-01-07 18:23:00,
2013-01-07 13:33:00,45.0,27.0,30.39,WSW,257,2.0,4.0,50,0.00,,,0.00,,2013-01-07 18:33:00,
2013-01-07 13:43:00,45.0,27.0,30.39,WSW,257,2.0,4.0,50,0.00,,,0.00,,2013-01-07 18:43:00,
2013-01-07 13:53:00,46.0,27.0,30.39,ESE,117,2.0,4.0,47,0.00,,,0.00,,2013-01-07 18:53:00,
2013-01-07 14:03:00,47.0,27.0,30.38,NE,49,2.0,7.0,46,0.00,,,0.00,,2013-01-07 19:03:00,
2013-01-07 14:12:00,47.0,27.0,30.38,NE,49,2.0,7.0,46,0.00,,,0.00,,2013-01-07 19:12:00,
2013-01-07 14:23:00,47.0,28.0,30.38,East,96,3.0,5.0,47,0.00,,,0.00,,2013-01-07 19:23:00,
2013-01-07 14:33:00,47.0,26.0,30.38,SSW,196,2.0,5.0,44,0.00,,,0.00,,2013-01-07 19:33:00,
2013-01-07 14:43:00,47.0,26.0,30.38,SSW,196,2.0,5.0,44,0.00,,,0.00,,2013-01-07 19:43:00,
2013-01-07 14:53:00,48.0,27.0,30.38,East,101,4.0,8.0,44,0.00,,,0.00,,2013-01-07 19:53:00,
2013-01-07 15:03:00,48.0,27.0,30.38,South,173,5.0,7.0,44,0.00,,,0.00,,2013-01-07 20:03:00,
2013-01-07 15:13:00,48.0,27.0,30.38,South,173,5.0,7.0,44,0.00,,,0.00,,2013-01-07 20:13:00,
2013-01-07 15:23:00,48.0,27.0,30.38,West,267,2.0,7.0,44,0.00,,,0.00,,2013-01-07 20:23:00,
2013-01-07 15:33:00,49.0,29.0,30.38,SSE,168,3.0,7.0,45,0.00,,,0.00,,2013-01-07 20:33:00,
2013-01-07 15:42:00,49.0,29.0,30.38,SSE,168,3.0,7.0,45,0.00,,,0.00,,2013-01-07 20:42:00,
2013-01-07 15:53:00,49.0,27.0,30.39,West,259,5.0,7.0,43,0.00,,,0.00,,2013-01-07 20:53:00,
2013-01-07 16:03:00,49.0,28.0,30.39,WSW,243,1.0,6.0,44,0.00,,,0.00,,2013-01-07 21:03:00,
2013-01-07 16:12:00,49.0,28.0,30.39,WSW,243,1.0,6.0,44,0.00,,,0.00,,2013-01-07 21:12:00,
2013-01-07 16:23:00,49.0,27.0,30.39,SSE,158,2.0,5.0,43,0.00,,,0.00,,2013-01-07 21:23:00,
2013-01-07 16:33:00,49.0,29.0,30.40,WSW,250,3.0,6.0,45,0.00,,,0.00,,2013-01-07 21:33:00,
2013-01-07 16:43:00,49.0,29.0,30.40,WSW,250,3.0,6.0,45,0.00,,,0.00,,2013-01-07 21:43:00,
2013-01-07 16:53:00,48.0,28.0,30.39,SW,214,2.0,7.0,45,0.00,,,0.00,,2013-01-07 21:53:00,
2013-01-07 17:03:00,48.0,28.0,30.39,SW,214,2.0,7.0,45,0.00,,,0.00,,2013-01-07 22:03:00,
2013-01-07 17:12:00,48.0,28.0,30.39,SW,214,2.0,7.0,45,0.00,,,0.00,,2013-01-07 22:12:00,
2013-01-07 17:23:00,48.0,28.0,30.40,SSW,198,0.0,3.0,46,0.00,,,0.00,,2013-01-07 22:23:00,
2013-01-07 17:33:00,48.0,28.0,30.40,SSW,200,0.0,3.0,46,0.00,,,0.00,,2013-01-07 22:33:00,
2013-01-07 17:43:00,48.0,28.0,30.40,SSW,200,0.0,3.0,46,0.00,,,0.00,,2013-01-07 22:43:00,
2013-01-07 17:53:00,46.0,27.0,30.40,SSW,200,0.0,0.0,48,0.00,,,0.00,,2013-01-07 22:53:00,
2013-01-07 18:02:00,44.0,28.0,30.40,SSW,200,0.0,0.0,53,0.00,,,0.00,,2013-01-07 23:02:00,
2013-01-07 18:12:00,44.0,28.0,30.40,SSW,200,0.0,0.0,53,0.00,,,0.00,,2013-01-07 23:12:00,
2013-01-07 18:22:00,42.0,28.0,30.41,SSW,200,0.0,0.0,57,0.00,,,0.00,,2013-01-07 23:22:00,
2013-01-07 18:33:00,40.0,28.0,30.41,SSW,200,0.0,0.0,62,0.00,,,0.00,,2013-01-07 23:33:00,
2013-01-07 18:43:00,40.0,28.0,30.41,SSW,200,0.0,0.0,62,0.00,,,0.00,,2013-01-07 23:43:00,
2013-01-07 18:53:00,38.0,27.0,30.42,SSW,200,0.0,0.0,65,0.00,,,0.00,,2013-01-07 23:53:00,
2013-01-07 19:03:00,37.0,27.0,30.42,SSW,200,0.0,0.0,67,0.00,,,0.00,,2013-01-08 00:03:00,
2013-01-07 19:12:00,37.0,27.0,30.42,SSW,200,0.0,0.0,67,0.00,,,0.00,,2013-01-08 00:12:00,
2013-01-07 19:22:00,37.0,27.0,30.42,SSW,200,0.0,0.0,67,0.00,,,0.00,,2013-01-08 00:22:00,
2013-01-07 19:33:00,36.0,27.0,30.43,SSW,200,0.0,0.0,70,0.00,,,0.00,,2013-01-08 00:33:00,
2013-01-07 19:42:00,36.0,27.0,30.43,SSW,200,0.0,0.0,70,0.00,,,0.00,,2013-01-08 00:42:00,
2013-01-07 19:53:00,35.0,27.0,30.42,SSW,200,0.0,0.0,72,0.00,,,0.00,,2013-01-08 00:53:00,
2013-01-07 20:03:00,34.0,27.0,30.42,SSW,200,0.0,0.0,74,0.00,,,0.00,,2013-01-08 01:03:00,
2013-01-07 20:12:00,34.0,27.0,30.42,SSW,200,0.0,0.0,74,0.00,,,0.00,,2013-01-08 01:12:00,
2013-01-07 20:22:00,33.0,26.0,30.42,SSW,200,0.0,0.0,75,0.00,,,0.00,,2013-01-08 01:22:00,
2013-01-07 20:33:00,33.0,26.0,30.42,SSW,200,0.0,0.0,75,0.00,,,0.00,,2013-01-08 01:33:00,
2013-01-07 20:42:00,33.0,26.0,30.42,SSW,200,0.0,0.0,75,0.00,,,0.00,,2013-01-08 01:42:00,
2013-01-07 20:52:00,33.0,26.0,30.42,SSW,200,0.0,0.0,76,0.00,,,0.00,,2013-01-08 01:52:00,
2013-01-07 21:02:00,32.0,26.0,30.42,SSW,200,0.0,0.0,79,0.00,,,0.00,,2013-01-08 02:02:00,
2013-01-07 21:12:00,32.0,26.0,30.42,SSW,200,0.0,0.0,79,0.00,,,0.00,,2013-01-08 02:12:00,
2013-01-07 21:22:00,32.0,26.0,30.42,SSW,200,0.0,0.0,79,0.00,,,0.00,,2013-01-08 02:22:00,
2013-01-07 21:33:00,31.0,26.0,30.42,SSW,200,0.0,0.0,80,0.00,,,0.00,,2013-01-08 02:33:00,
2013-01-07 21:42:00,31.0,26.0,30.42,SSW,200,0.0,0.0,80,0.00,,,0.00,,2013-01-08 02:42:00,
2013-01-07 21:53:00,31.0,26.0,30.42,SSW,200,0.0,0.0,80,0.00,,,0.00,,2013-01-08 02:53:00,
2013-01-07 22:03:00,31.0,26.0,30.41,SSW,200,0.0,0.0,81,0.00,,,0.00,,2013-01-08 03:03:00,
2013-01-07 22:12:00,31.0,26.0,30.41,SSW,200,0.0,0.0,81,0.00,,,0.00,,2013-01-08 03:12:00,
2013-01-07 22:22:00,30.0,25.0,30.41,SSW,200,0.0,0.0,82,0.00,,,0.00,,2013-01-08 03:22:00,
2013-01-07 22:32:00,30.0,25.0,30.41,SSW,200,0.0,0.0,82,0.00,,,0.00,,2013-01-08 03:32:00,
2013-01-07 22:43:00,30.0,25.0,30.41,SSW,200,0.0,0.0,82,0.00,,,0.00,,2013-01-08 03:43:00,
2013-01-07 22:53:00,29.0,25.0,30.41,SSW,200,0.0,0.0,83,0.00,,,0.00,,2013-01-08 03:53:00,
2013-01-07 23:02:00,29.0,25.0,30.42,SSW,200,0.0,0.0,84,0.00,,,0.00,,2013-01-08 04:02:00,
2013-01-07 23:12:00,29.0,25.0,30.42,SSW,200,0.0,0.0,84,0.00,,,0.00,,2013-01-08 04:12:00,
2013-01-07 23:22:00,29.0,25.0,30.42,SSW,200,0.0,0.0,84,0.00,,,0.00,,2013-01-08 04:22:00,
2013-01-07 23:32:00,29.0,25.0,30.42,SSW,200,0.0,0.0,84,0.00,,,0.00,,2013-01-08 04:32:00,
2013-01-07 23:42:00,29.0,25.0,30.42,SSW,200,0.0,0.0,84,0.00,,,0.00,,2013-01-08 04:42:00,
2013-01-07 23:52:00,28.0,24.0,30.42,SSW,200,0.0,0.0,85,0.00,,,0.00,,2013-01-08 04:52:00,